sensor_id;sensor_type;location;lat;lon;timestamp;P1;durP1;ratioP1;P2;durP2;ratioP2
7334;SDS011;3708;42.632;23.378;2022-09-24T00:02:01;3.77;;;2.90;;
7334;SDS011;3708;42.632;23.378;2022-09-24T00:04:29;3.20;;;2.90;;
7334;SDS011;3708;42.632;23.378;2022-09-24T00:06:56;3.20;;;2.70;;
7334;SDS011;3708;42.632;23.378;2022-09-24T00:09:23;3.53;;;2.40;;
7334;SDS011;3708;42.632;23.378;2022-09-24T00:11:51;2.93;;;2.43;;
7334;SDS011;3708;42.632;23.378;2022-09-24T00:14:19;4.33;;;2.50;;
7334;SDS011;3708;42.632;23.378;2022-09-24T00:16:46;4.17;;;2.80;;
7334;SDS011;3708;42.632;23.378;2022-09-24T00:19:14;2.50;;;2.30;;
7334;SDS011;3708;42.632;23.378;2022-09-24T00:21:41;3.33;;;2.37;;
7334;SDS011;3708;42.632;23.378;2022-09-24T00:24:08;3.50;;;2.30;;
7334;SDS011;3708;42.632;23.378;2022-09-24T00:26:59;4.63;;;2.57;;
7334;SDS011;3708;42.632;23.378;2022-09-24T00:29:27;4.23;;;3.00;;
7334;SDS011;3708;42.632;23.378;2022-09-24T00:31:55;5.13;;;3.03;;
7334;SDS011;3708;42.632;23.378;2022-09-24T00:34:22;3.00;;;2.47;;
7334;SDS011;3708;42.632;23.378;2022-09-24T00:36:49;3.83;;;2.80;;
7334;SDS011;3708;42.632;23.378;2022-09-24T00:39:17;3.30;;;2.40;;
7334;SDS011;3708;42.632;23.378;2022-09-24T00:41:44;4.03;;;2.77;;
7334;SDS011;3708;42.632;23.378;2022-09-24T00:47:19;3.17;;;2.40;;
7334;SDS011;3708;42.632;23.378;2022-09-24T00:49:51;3.27;;;2.63;;
7334;SDS011;3708;42.632;23.378;2022-09-24T00:52:24;3.23;;;2.70;;
7334;SDS011;3708;42.632;23.378;2022-09-24T00:54:51;2.90;;;2.40;;
7334;SDS011;3708;42.632;23.378;2022-09-24T00:57:19;2.77;;;2.50;;
7334;SDS011;3708;42.632;23.378;2022-09-24T00:59:46;3.57;;;2.70;;
7334;SDS011;3708;42.632;23.378;2022-09-24T01:02:14;4.83;;;3.60;;
7334;SDS011;3708;42.632;23.378;2022-09-24T01:04:41;2.97;;;2.63;;
7334;SDS011;3708;42.632;23.378;2022-09-24T01:07:08;3.33;;;2.83;;
7334;SDS011;3708;42.632;23.378;2022-09-24T01:09:36;3.17;;;2.67;;
7334;SDS011;3708;42.632;23.378;2022-09-24T01:12:04;3.83;;;3.00;;
7334;SDS011;3708;42.632;23.378;2022-09-24T01:14:42;3.20;;;2.83;;
7334;SDS011;3708;42.632;23.378;2022-09-24T01:17:24;3.40;;;2.90;;
7334;SDS011;3708;42.632;23.378;2022-09-24T01:20:02;4.73;;;3.53;;
7334;SDS011;3708;42.632;23.378;2022-09-24T01:22:44;4.60;;;3.17;;
7334;SDS011;3708;42.632;23.378;2022-09-24T01:25:25;4.93;;;3.10;;
7334;SDS011;3708;42.632;23.378;2022-09-24T01:28:05;3.70;;;3.03;;
7334;SDS011;3708;42.632;23.378;2022-09-24T01:30:43;2.93;;;2.53;;
7334;SDS011;3708;42.632;23.378;2022-09-24T01:33:15;4.17;;;3.20;;
7334;SDS011;3708;42.632;23.378;2022-09-24T01:35:46;3.90;;;3.07;;
7334;SDS011;3708;42.632;23.378;2022-09-24T01:38:16;3.70;;;2.83;;
7334;SDS011;3708;42.632;23.378;2022-09-24T01:40:45;4.67;;;3.50;;
7334;SDS011;3708;42.632;23.378;2022-09-24T01:43:16;4.67;;;3.43;;
7334;SDS011;3708;42.632;23.378;2022-09-24T01:45:48;4.63;;;3.03;;
7334;SDS011;3708;42.632;23.378;2022-09-24T01:48:16;5.80;;;3.00;;
7334;SDS011;3708;42.632;23.378;2022-09-24T01:50:47;5.23;;;3.50;;
7334;SDS011;3708;42.632;23.378;2022-09-24T01:53:20;3.80;;;3.00;;
7334;SDS011;3708;42.632;23.378;2022-09-24T01:55:51;4.60;;;3.40;;
7334;SDS011;3708;42.632;23.378;2022-09-24T01:58:25;4.57;;;3.10;;
7334;SDS011;3708;42.632;23.378;2022-09-24T02:00:57;3.33;;;3.00;;
7334;SDS011;3708;42.632;23.378;2022-09-24T02:03:30;3.47;;;3.17;;
7334;SDS011;3708;42.632;23.378;2022-09-24T02:06:01;5.37;;;3.70;;
7334;SDS011;3708;42.632;23.378;2022-09-24T02:08:36;5.13;;;4.37;;
7334;SDS011;3708;42.632;23.378;2022-09-24T02:11:05;3.60;;;3.13;;
7334;SDS011;3708;42.632;23.378;2022-09-24T02:13:34;4.30;;;3.37;;
7334;SDS011;3708;42.632;23.378;2022-09-24T02:16:06;3.70;;;3.30;;
7334;SDS011;3708;42.632;23.378;2022-09-24T02:18:37;7.07;;;3.27;;
7334;SDS011;3708;42.632;23.378;2022-09-24T02:21:06;5.03;;;3.73;;
7334;SDS011;3708;42.632;23.378;2022-09-24T02:23:37;5.30;;;3.20;;
7334;SDS011;3708;42.632;23.378;2022-09-24T02:26:07;3.47;;;2.90;;
7334;SDS011;3708;42.632;23.378;2022-09-24T02:28:34;4.37;;;3.30;;
7334;SDS011;3708;42.632;23.378;2022-09-24T02:31:02;4.00;;;3.50;;
7334;SDS011;3708;42.632;23.378;2022-09-24T02:33:34;3.17;;;2.87;;
7334;SDS011;3708;42.632;23.378;2022-09-24T02:36:21;3.60;;;2.93;;
7334;SDS011;3708;42.632;23.378;2022-09-24T02:38:49;4.83;;;3.30;;
7334;SDS011;3708;42.632;23.378;2022-09-24T02:41:16;3.37;;;2.97;;
7334;SDS011;3708;42.632;23.378;2022-09-24T02:43:43;3.20;;;2.90;;
7334;SDS011;3708;42.632;23.378;2022-09-24T02:46:13;3.50;;;3.00;;
7334;SDS011;3708;42.632;23.378;2022-09-24T02:48:39;3.20;;;2.87;;
7334;SDS011;3708;42.632;23.378;2022-09-24T02:51:06;3.77;;;3.30;;
7334;SDS011;3708;42.632;23.378;2022-09-24T02:53:33;4.67;;;3.30;;
7334;SDS011;3708;42.632;23.378;2022-09-24T02:56:00;3.30;;;2.97;;
7334;SDS011;3708;42.632;23.378;2022-09-24T02:58:28;4.00;;;3.37;;
7334;SDS011;3708;42.632;23.378;2022-09-24T03:00:56;3.63;;;2.83;;
7334;SDS011;3708;42.632;23.378;2022-09-24T03:03:24;3.93;;;3.43;;
7334;SDS011;3708;42.632;23.378;2022-09-24T03:05:52;3.77;;;3.40;;
7334;SDS011;3708;42.632;23.378;2022-09-24T03:08:19;4.17;;;3.07;;
7334;SDS011;3708;42.632;23.378;2022-09-24T03:10:46;5.53;;;3.80;;
7334;SDS011;3708;42.632;23.378;2022-09-24T03:13:15;4.47;;;3.90;;
7334;SDS011;3708;42.632;23.378;2022-09-24T03:15:43;5.00;;;4.03;;
7334;SDS011;3708;42.632;23.378;2022-09-24T03:18:11;4.53;;;3.97;;
7334;SDS011;3708;42.632;23.378;2022-09-24T03:20:39;6.07;;;4.07;;
7334;SDS011;3708;42.632;23.378;2022-09-24T03:23:06;4.43;;;3.83;;
7334;SDS011;3708;42.632;23.378;2022-09-24T03:25:33;4.57;;;3.83;;
7334;SDS011;3708;42.632;23.378;2022-09-24T03:28:00;4.93;;;3.60;;
7334;SDS011;3708;42.632;23.378;2022-09-24T03:30:27;5.23;;;3.57;;
7334;SDS011;3708;42.632;23.378;2022-09-24T03:33:11;5.50;;;3.97;;
7334;SDS011;3708;42.632;23.378;2022-09-24T03:35:39;6.57;;;3.93;;
7334;SDS011;3708;42.632;23.378;2022-09-24T03:38:06;5.13;;;4.07;;
7334;SDS011;3708;42.632;23.378;2022-09-24T03:40:33;5.00;;;4.17;;
7334;SDS011;3708;42.632;23.378;2022-09-24T03:43:00;5.90;;;4.73;;
7334;SDS011;3708;42.632;23.378;2022-09-24T03:45:27;5.23;;;3.80;;
7334;SDS011;3708;42.632;23.378;2022-09-24T03:47:53;5.23;;;4.43;;
7334;SDS011;3708;42.632;23.378;2022-09-24T03:50:20;7.40;;;5.37;;
7334;SDS011;3708;42.632;23.378;2022-09-24T03:52:49;6.37;;;4.37;;
7334;SDS011;3708;42.632;23.378;2022-09-24T03:55:16;6.13;;;4.70;;
7334;SDS011;3708;42.632;23.378;2022-09-24T03:57:42;6.57;;;4.60;;
7334;SDS011;3708;42.632;23.378;2022-09-24T04:00:10;6.93;;;4.50;;
7334;SDS011;3708;42.632;23.378;2022-09-24T04:02:37;6.13;;;4.43;;
7334;SDS011;3708;42.632;23.378;2022-09-24T04:05:05;6.57;;;4.60;;
7334;SDS011;3708;42.632;23.378;2022-09-24T04:07:32;6.07;;;4.27;;
7334;SDS011;3708;42.632;23.378;2022-09-24T04:10:01;5.83;;;4.43;;
7334;SDS011;3708;42.632;23.378;2022-09-24T04:12:28;5.90;;;4.37;;
7334;SDS011;3708;42.632;23.378;2022-09-24T04:14:55;7.60;;;4.40;;
7334;SDS011;3708;42.632;23.378;2022-09-24T04:17:22;5.27;;;4.13;;
7334;SDS011;3708;42.632;23.378;2022-09-24T04:19:54;6.63;;;4.27;;
7334;SDS011;3708;42.632;23.378;2022-09-24T04:22:21;5.13;;;4.40;;
7334;SDS011;3708;42.632;23.378;2022-09-24T04:24:47;5.83;;;4.33;;
7334;SDS011;3708;42.632;23.378;2022-09-24T04:27:16;5.63;;;4.83;;
7334;SDS011;3708;42.632;23.378;2022-09-24T04:29:44;6.47;;;4.47;;
7334;SDS011;3708;42.632;23.378;2022-09-24T04:32:11;6.03;;;4.23;;
7334;SDS011;3708;42.632;23.378;2022-09-24T04:34:38;4.90;;;3.83;;
7334;SDS011;3708;42.632;23.378;2022-09-24T04:37:05;6.00;;;4.57;;
7334;SDS011;3708;42.632;23.378;2022-09-24T04:39:33;5.60;;;4.30;;
7334;SDS011;3708;42.632;23.378;2022-09-24T04:42:00;6.23;;;4.63;;
7334;SDS011;3708;42.632;23.378;2022-09-24T04:44:28;4.80;;;4.10;;
7334;SDS011;3708;42.632;23.378;2022-09-24T04:46:55;5.13;;;4.40;;
7334;SDS011;3708;42.632;23.378;2022-09-24T04:49:26;5.00;;;4.27;;
7334;SDS011;3708;42.632;23.378;2022-09-24T04:51:53;6.10;;;4.50;;
7334;SDS011;3708;42.632;23.378;2022-09-24T04:54:22;5.47;;;4.70;;
7334;SDS011;3708;42.632;23.378;2022-09-24T04:56:49;10.03;;;4.67;;
7334;SDS011;3708;42.632;23.378;2022-09-24T04:59:16;5.67;;;4.30;;
7334;SDS011;3708;42.632;23.378;2022-09-24T05:01:45;6.37;;;4.07;;
7334;SDS011;3708;42.632;23.378;2022-09-24T05:04:12;4.80;;;4.27;;
7334;SDS011;3708;42.632;23.378;2022-09-24T05:06:39;7.80;;;4.40;;
7334;SDS011;3708;42.632;23.378;2022-09-24T05:09:06;4.83;;;4.23;;
7334;SDS011;3708;42.632;23.378;2022-09-24T05:11:32;5.10;;;3.87;;
7334;SDS011;3708;42.632;23.378;2022-09-24T05:13:59;8.03;;;4.37;;
7334;SDS011;3708;42.632;23.378;2022-09-24T05:16:26;8.00;;;6.03;;
7334;SDS011;3708;42.632;23.378;2022-09-24T05:18:55;14.67;;;4.73;;
7334;SDS011;3708;42.632;23.378;2022-09-24T05:21:25;7.43;;;4.80;;
7334;SDS011;3708;42.632;23.378;2022-09-24T05:24:00;4.93;;;4.10;;
7334;SDS011;3708;42.632;23.378;2022-09-24T05:26:28;13.03;;;6.50;;
7334;SDS011;3708;42.632;23.378;2022-09-24T05:29:12;5.57;;;4.57;;
7334;SDS011;3708;42.632;23.378;2022-09-24T05:31:38;8.07;;;4.67;;
7334;SDS011;3708;42.632;23.378;2022-09-24T05:34:09;5.47;;;3.60;;
7334;SDS011;3708;42.632;23.378;2022-09-24T05:36:38;7.50;;;4.17;;
7334;SDS011;3708;42.632;23.378;2022-09-24T05:39:10;4.93;;;3.57;;
7334;SDS011;3708;42.632;23.378;2022-09-24T05:41:38;4.20;;;3.67;;
7334;SDS011;3708;42.632;23.378;2022-09-24T05:44:10;5.00;;;3.90;;
7334;SDS011;3708;42.632;23.378;2022-09-24T05:46:38;4.27;;;3.63;;
7334;SDS011;3708;42.632;23.378;2022-09-24T05:49:05;6.43;;;4.03;;
7334;SDS011;3708;42.632;23.378;2022-09-24T05:51:48;3.57;;;3.20;;
7334;SDS011;3708;42.632;23.378;2022-09-24T05:54:15;5.07;;;3.63;;
7334;SDS011;3708;42.632;23.378;2022-09-24T05:56:45;3.63;;;3.33;;
7334;SDS011;3708;42.632;23.378;2022-09-24T05:59:12;7.77;;;3.83;;
7334;SDS011;3708;42.632;23.378;2022-09-24T06:01:39;4.47;;;3.57;;
7334;SDS011;3708;42.632;23.378;2022-09-24T06:04:06;3.87;;;3.47;;
7334;SDS011;3708;42.632;23.378;2022-09-24T06:06:35;7.93;;;3.97;;
7334;SDS011;3708;42.632;23.378;2022-09-24T06:09:04;7.93;;;4.17;;
7334;SDS011;3708;42.632;23.378;2022-09-24T06:11:34;5.20;;;3.97;;
7334;SDS011;3708;42.632;23.378;2022-09-24T06:14:01;5.30;;;4.13;;
7334;SDS011;3708;42.632;23.378;2022-09-24T06:16:31;4.60;;;3.60;;
7334;SDS011;3708;42.632;23.378;2022-09-24T06:19:01;4.33;;;3.73;;
7334;SDS011;3708;42.632;23.378;2022-09-24T06:21:30;6.77;;;3.60;;
7334;SDS011;3708;42.632;23.378;2022-09-24T06:23:58;5.47;;;4.23;;
7334;SDS011;3708;42.632;23.378;2022-09-24T06:26:28;5.50;;;4.43;;
7334;SDS011;3708;42.632;23.378;2022-09-24T06:28:57;4.90;;;3.93;;
7334;SDS011;3708;42.632;23.378;2022-09-24T06:31:26;4.37;;;3.63;;
7334;SDS011;3708;42.632;23.378;2022-09-24T06:34:08;5.67;;;4.17;;
7334;SDS011;3708;42.632;23.378;2022-09-24T06:36:35;5.47;;;4.40;;
7334;SDS011;3708;42.632;23.378;2022-09-24T06:39:06;5.50;;;4.70;;
7334;SDS011;3708;42.632;23.378;2022-09-24T06:41:35;5.80;;;4.50;;
7334;SDS011;3708;42.632;23.378;2022-09-24T06:44:02;5.17;;;3.87;;
7334;SDS011;3708;42.632;23.378;2022-09-24T06:46:29;5.10;;;4.37;;
7334;SDS011;3708;42.632;23.378;2022-09-24T06:48:55;6.30;;;5.03;;
7334;SDS011;3708;42.632;23.378;2022-09-24T06:51:22;8.17;;;5.03;;
7334;SDS011;3708;42.632;23.378;2022-09-24T06:53:49;6.47;;;4.87;;
7334;SDS011;3708;42.632;23.378;2022-09-24T06:56:17;8.60;;;6.13;;
7334;SDS011;3708;42.632;23.378;2022-09-24T06:58:46;10.23;;;5.60;;
7334;SDS011;3708;42.632;23.378;2022-09-24T07:01:12;21.30;;;5.93;;
7334;SDS011;3708;42.632;23.378;2022-09-24T07:03:39;7.57;;;5.30;;
7334;SDS011;3708;42.632;23.378;2022-09-24T07:06:06;10.47;;;5.90;;
7334;SDS011;3708;42.632;23.378;2022-09-24T07:08:33;7.80;;;4.83;;
7334;SDS011;3708;42.632;23.378;2022-09-24T07:11:00;5.83;;;4.70;;
7334;SDS011;3708;42.632;23.378;2022-09-24T07:13:29;8.37;;;4.70;;
7334;SDS011;3708;42.632;23.378;2022-09-24T07:15:58;7.73;;;5.40;;
7334;SDS011;3708;42.632;23.378;2022-09-24T07:18:25;16.63;;;4.73;;
7334;SDS011;3708;42.632;23.378;2022-09-24T07:20:55;7.13;;;4.20;;
7334;SDS011;3708;42.632;23.378;2022-09-24T07:23:22;8.37;;;5.07;;
7334;SDS011;3708;42.632;23.378;2022-09-24T07:25:54;9.80;;;4.90;;
7334;SDS011;3708;42.632;23.378;2022-09-24T07:28:25;8.43;;;5.20;;
7334;SDS011;3708;42.632;23.378;2022-09-24T07:30:58;4.83;;;4.27;;
7334;SDS011;3708;42.632;23.378;2022-09-24T07:33:26;9.07;;;4.40;;
7334;SDS011;3708;42.632;23.378;2022-09-24T07:35:54;13.60;;;4.23;;
7334;SDS011;3708;42.632;23.378;2022-09-24T07:38:22;9.13;;;4.40;;
7334;SDS011;3708;42.632;23.378;2022-09-24T07:40:49;8.53;;;4.33;;
7334;SDS011;3708;42.632;23.378;2022-09-24T07:43:16;11.23;;;4.40;;
7334;SDS011;3708;42.632;23.378;2022-09-24T07:45:42;9.17;;;3.83;;
7334;SDS011;3708;42.632;23.378;2022-09-24T07:48:12;6.00;;;4.03;;
7334;SDS011;3708;42.632;23.378;2022-09-24T07:50:40;8.57;;;4.63;;
7334;SDS011;3708;42.632;23.378;2022-09-24T07:53:08;7.50;;;4.33;;
7334;SDS011;3708;42.632;23.378;2022-09-24T07:55:36;7.33;;;3.53;;
7334;SDS011;3708;42.632;23.378;2022-09-24T07:58:05;9.90;;;4.33;;
7334;SDS011;3708;42.632;23.378;2022-09-24T08:00:33;10.27;;;5.03;;
7334;SDS011;3708;42.632;23.378;2022-09-24T08:03:00;6.07;;;4.30;;
7334;SDS011;3708;42.632;23.378;2022-09-24T08:05:32;4.10;;;3.70;;
7334;SDS011;3708;42.632;23.378;2022-09-24T08:07:59;7.83;;;4.53;;
7334;SDS011;3708;42.632;23.378;2022-09-24T08:10:27;7.53;;;4.90;;
7334;SDS011;3708;42.632;23.378;2022-09-24T08:13:00;11.77;;;3.83;;
7334;SDS011;3708;42.632;23.378;2022-09-24T08:15:31;8.57;;;4.33;;
7334;SDS011;3708;42.632;23.378;2022-09-24T08:17:59;6.20;;;4.87;;
7334;SDS011;3708;42.632;23.378;2022-09-24T08:20:34;8.10;;;4.53;;
7334;SDS011;3708;42.632;23.378;2022-09-24T08:23:03;7.13;;;4.27;;
7334;SDS011;3708;42.632;23.378;2022-09-24T08:25:32;6.97;;;4.30;;
7334;SDS011;3708;42.632;23.378;2022-09-24T08:28:00;6.27;;;4.10;;
7334;SDS011;3708;42.632;23.378;2022-09-24T08:30:27;6.57;;;4.47;;
7334;SDS011;3708;42.632;23.378;2022-09-24T08:32:55;9.70;;;4.63;;
7334;SDS011;3708;42.632;23.378;2022-09-24T08:35:22;5.47;;;4.13;;
7334;SDS011;3708;42.632;23.378;2022-09-24T08:37:51;7.73;;;3.83;;
7334;SDS011;3708;42.632;23.378;2022-09-24T08:40:20;7.07;;;4.63;;
7334;SDS011;3708;42.632;23.378;2022-09-24T08:42:50;4.70;;;3.80;;
7334;SDS011;3708;42.632;23.378;2022-09-24T08:45:25;5.13;;;4.13;;
7334;SDS011;3708;42.632;23.378;2022-09-24T08:48:11;16.00;;;4.17;;
7334;SDS011;3708;42.632;23.378;2022-09-24T08:50:45;9.60;;;4.83;;
7334;SDS011;3708;42.632;23.378;2022-09-24T08:53:18;7.67;;;4.57;;
7334;SDS011;3708;42.632;23.378;2022-09-24T08:55:52;9.93;;;4.57;;
7334;SDS011;3708;42.632;23.378;2022-09-24T08:58:28;4.90;;;4.10;;
7334;SDS011;3708;42.632;23.378;2022-09-24T09:01:04;5.60;;;4.27;;
7334;SDS011;3708;42.632;23.378;2022-09-24T09:03:41;5.33;;;3.93;;
7334;SDS011;3708;42.632;23.378;2022-09-24T09:06:14;5.77;;;3.47;;
7334;SDS011;3708;42.632;23.378;2022-09-24T09:08:57;4.30;;;3.20;;
7334;SDS011;3708;42.632;23.378;2022-09-24T09:11:30;5.67;;;3.43;;
7334;SDS011;3708;42.632;23.378;2022-09-24T09:14:02;6.63;;;3.73;;
7334;SDS011;3708;42.632;23.378;2022-09-24T09:16:32;4.97;;;3.63;;
7334;SDS011;3708;42.632;23.378;2022-09-24T09:19:03;7.70;;;3.80;;
7334;SDS011;3708;42.632;23.378;2022-09-24T09:21:33;8.33;;;3.97;;
7334;SDS011;3708;42.632;23.378;2022-09-24T09:24:08;5.53;;;3.97;;
7334;SDS011;3708;42.632;23.378;2022-09-24T09:26:42;3.17;;;2.87;;
7334;SDS011;3708;42.632;23.378;2022-09-24T09:29:12;4.10;;;3.53;;
7334;SDS011;3708;42.632;23.378;2022-09-24T09:31:44;5.00;;;3.17;;
7334;SDS011;3708;42.632;23.378;2022-09-24T09:34:25;6.20;;;2.77;;
7334;SDS011;3708;42.632;23.378;2022-09-24T09:37:08;3.93;;;2.87;;
7334;SDS011;3708;42.632;23.378;2022-09-24T09:39:49;10.73;;;3.53;;
7334;SDS011;3708;42.632;23.378;2022-09-24T09:42:28;8.03;;;3.07;;
7334;SDS011;3708;42.632;23.378;2022-09-24T09:45:00;4.20;;;2.73;;
7334;SDS011;3708;42.632;23.378;2022-09-24T09:47:33;3.37;;;2.90;;
7334;SDS011;3708;42.632;23.378;2022-09-24T09:50:14;3.43;;;3.13;;
7334;SDS011;3708;42.632;23.378;2022-09-24T09:52:49;4.77;;;3.33;;
7334;SDS011;3708;42.632;23.378;2022-09-24T09:55:21;7.93;;;3.60;;
7334;SDS011;3708;42.632;23.378;2022-09-24T09:57:51;4.33;;;3.47;;
7334;SDS011;3708;42.632;23.378;2022-09-24T10:00:34;6.13;;;3.37;;
7334;SDS011;3708;42.632;23.378;2022-09-24T10:03:06;6.10;;;3.30;;
7334;SDS011;3708;42.632;23.378;2022-09-24T10:05:59;5.77;;;3.60;;
7334;SDS011;3708;42.632;23.378;2022-09-24T10:08:45;7.83;;;4.30;;
7334;SDS011;3708;42.632;23.378;2022-09-24T10:11:20;3.63;;;2.80;;
7334;SDS011;3708;42.632;23.378;2022-09-24T10:13:59;7.00;;;3.33;;
7334;SDS011;3708;42.632;23.378;2022-09-24T10:16:27;3.50;;;2.80;;
7334;SDS011;3708;42.632;23.378;2022-09-24T10:19:03;4.97;;;3.30;;
7334;SDS011;3708;42.632;23.378;2022-09-24T10:21:36;4.97;;;2.93;;
7334;SDS011;3708;42.632;23.378;2022-09-24T10:24:04;4.63;;;3.03;;
7334;SDS011;3708;42.632;23.378;2022-09-24T10:26:37;5.63;;;3.20;;
7334;SDS011;3708;42.632;23.378;2022-09-24T10:29:09;3.87;;;2.90;;
7334;SDS011;3708;42.632;23.378;2022-09-24T10:31:57;3.93;;;2.80;;
7334;SDS011;3708;42.632;23.378;2022-09-24T10:34:25;5.93;;;3.33;;
7334;SDS011;3708;42.632;23.378;2022-09-24T10:36:57;4.70;;;3.53;;
7334;SDS011;3708;42.632;23.378;2022-09-24T10:39:28;5.53;;;3.33;;
7334;SDS011;3708;42.632;23.378;2022-09-24T10:41:57;5.27;;;3.73;;
7334;SDS011;3708;42.632;23.378;2022-09-24T10:44:27;5.57;;;3.57;;
7334;SDS011;3708;42.632;23.378;2022-09-24T10:47:04;4.70;;;3.20;;
7334;SDS011;3708;42.632;23.378;2022-09-24T10:49:51;5.37;;;3.10;;
7334;SDS011;3708;42.632;23.378;2022-09-24T10:55:16;4.27;;;2.97;;
7334;SDS011;3708;42.632;23.378;2022-09-24T10:57:54;5.57;;;3.07;;
7334;SDS011;3708;42.632;23.378;2022-09-24T11:00:27;4.97;;;2.90;;
7334;SDS011;3708;42.632;23.378;2022-09-24T11:03:07;4.43;;;3.23;;
7334;SDS011;3708;42.632;23.378;2022-09-24T11:05:51;3.30;;;2.73;;
7334;SDS011;3708;42.632;23.378;2022-09-24T11:08:24;9.53;;;3.50;;
7334;SDS011;3708;42.632;23.378;2022-09-24T11:11:05;3.60;;;3.00;;
7334;SDS011;3708;42.632;23.378;2022-09-24T11:13:46;6.47;;;2.75;;
7334;SDS011;3708;42.632;23.378;2022-09-24T11:16:25;3.63;;;2.90;;
7334;SDS011;3708;42.632;23.378;2022-09-24T11:19:23;6.43;;;3.40;;
7334;SDS011;3708;42.632;23.378;2022-09-24T11:22:15;6.15;;;2.92;;
7334;SDS011;3708;42.632;23.378;2022-09-24T11:24:56;5.30;;;2.80;;
7334;SDS011;3708;42.632;23.378;2022-09-24T11:27:40;8.15;;;3.10;;
7334;SDS011;3708;42.632;23.378;2022-09-24T11:30:18;3.45;;;2.63;;
7334;SDS011;3708;42.632;23.378;2022-09-24T11:32:57;6.25;;;2.65;;
7334;SDS011;3708;42.632;23.378;2022-09-24T11:35:43;5.57;;;3.33;;
7334;SDS011;3708;42.632;23.378;2022-09-24T11:38:24;5.35;;;2.90;;
7334;SDS011;3708;42.632;23.378;2022-09-24T11:41:03;4.00;;;2.90;;
7334;SDS011;3708;42.632;23.378;2022-09-24T11:43:44;2.70;;;2.35;;
7334;SDS011;3708;42.632;23.378;2022-09-24T11:46:33;4.32;;;2.35;;
7334;SDS011;3708;42.632;23.378;2022-09-24T11:49:18;2.43;;;2.20;;
7334;SDS011;3708;42.632;23.378;2022-09-24T11:51:58;2.42;;;2.22;;
7334;SDS011;3708;42.632;23.378;2022-09-24T11:54:29;4.10;;;2.45;;
7334;SDS011;3708;42.632;23.378;2022-09-24T11:57:02;2.13;;;1.85;;
7334;SDS011;3708;42.632;23.378;2022-09-24T11:59:37;3.95;;;2.20;;
7334;SDS011;3708;42.632;23.378;2022-09-24T12:02:12;4.55;;;2.80;;
7334;SDS011;3708;42.632;23.378;2022-09-24T12:04:46;7.65;;;2.90;;
7334;SDS011;3708;42.632;23.378;2022-09-24T12:07:20;3.85;;;2.92;;
7334;SDS011;3708;42.632;23.378;2022-09-24T12:09:53;5.47;;;2.75;;
7334;SDS011;3708;42.632;23.378;2022-09-24T12:12:25;5.63;;;2.13;;
7334;SDS011;3708;42.632;23.378;2022-09-24T12:14:56;6.18;;;2.30;;
7334;SDS011;3708;42.632;23.378;2022-09-24T12:17:30;4.55;;;1.90;;
7334;SDS011;3708;42.632;23.378;2022-09-24T12:20:03;4.57;;;2.40;;
7334;SDS011;3708;42.632;23.378;2022-09-24T12:22:37;3.60;;;2.30;;
7334;SDS011;3708;42.632;23.378;2022-09-24T12:25:09;4.30;;;2.15;;
7334;SDS011;3708;42.632;23.378;2022-09-24T12:27:41;3.65;;;2.22;;
7334;SDS011;3708;42.632;23.378;2022-09-24T12:30:14;3.00;;;2.50;;
7334;SDS011;3708;42.632;23.378;2022-09-24T12:33:08;3.97;;;2.70;;
7334;SDS011;3708;42.632;23.378;2022-09-24T12:35:42;4.40;;;2.30;;
7334;SDS011;3708;42.632;23.378;2022-09-24T12:38:21;2.25;;;1.90;;
7334;SDS011;3708;42.632;23.378;2022-09-24T12:43:39;2.85;;;2.35;;
7334;SDS011;3708;42.632;23.378;2022-09-24T12:46:14;2.70;;;1.95;;
7334;SDS011;3708;42.632;23.378;2022-09-24T12:48:45;2.83;;;2.05;;
7334;SDS011;3708;42.632;23.378;2022-09-24T12:51:14;2.92;;;2.10;;
7334;SDS011;3708;42.632;23.378;2022-09-24T12:53:53;7.38;;;1.90;;
7334;SDS011;3708;42.632;23.378;2022-09-24T12:56:23;3.40;;;2.00;;
7334;SDS011;3708;42.632;23.378;2022-09-24T12:58:53;5.63;;;2.05;;
7334;SDS011;3708;42.632;23.378;2022-09-24T13:01:25;3.50;;;2.00;;
7334;SDS011;3708;42.632;23.378;2022-09-24T13:04:03;2.47;;;1.80;;
7334;SDS011;3708;42.632;23.378;2022-09-24T13:06:33;2.97;;;1.83;;
7334;SDS011;3708;42.632;23.378;2022-09-24T13:09:01;4.88;;;2.10;;
7334;SDS011;3708;42.632;23.378;2022-09-24T13:11:30;5.10;;;2.25;;
7334;SDS011;3708;42.632;23.378;2022-09-24T13:14:06;4.25;;;2.33;;
7334;SDS011;3708;42.632;23.378;2022-09-24T13:16:46;4.22;;;2.05;;
7334;SDS011;3708;42.632;23.378;2022-09-24T13:19:22;2.70;;;2.00;;
7334;SDS011;3708;42.632;23.378;2022-09-24T13:21:55;2.47;;;2.28;;
7334;SDS011;3708;42.632;23.378;2022-09-24T13:24:25;4.95;;;2.08;;
7334;SDS011;3708;42.632;23.378;2022-09-24T13:27:06;3.47;;;2.08;;
7334;SDS011;3708;42.632;23.378;2022-09-24T13:29:36;2.97;;;2.03;;
7334;SDS011;3708;42.632;23.378;2022-09-24T13:32:04;4.07;;;2.60;;
7334;SDS011;3708;42.632;23.378;2022-09-24T13:34:42;3.28;;;1.90;;
7334;SDS011;3708;42.632;23.378;2022-09-24T13:37:14;5.40;;;2.10;;
7334;SDS011;3708;42.632;23.378;2022-09-24T13:39:46;9.05;;;2.30;;
7334;SDS011;3708;42.632;23.378;2022-09-24T13:42:18;3.72;;;2.65;;
7334;SDS011;3708;42.632;23.378;2022-09-24T13:44:51;3.08;;;2.20;;
7334;SDS011;3708;42.632;23.378;2022-09-24T13:47:21;7.57;;;2.20;;
7334;SDS011;3708;42.632;23.378;2022-09-24T13:49:58;2.10;;;1.83;;
7334;SDS011;3708;42.632;23.378;2022-09-24T13:52:33;2.55;;;1.90;;
7334;SDS011;3708;42.632;23.378;2022-09-24T13:55:05;3.22;;;2.33;;
7334;SDS011;3708;42.632;23.378;2022-09-24T13:57:41;2.63;;;1.95;;
7334;SDS011;3708;42.632;23.378;2022-09-24T14:00:18;3.00;;;2.22;;
7334;SDS011;3708;42.632;23.378;2022-09-24T14:02:58;4.00;;;1.75;;
7334;SDS011;3708;42.632;23.378;2022-09-24T14:05:29;3.15;;;2.00;;
7334;SDS011;3708;42.632;23.378;2022-09-24T14:08:00;6.78;;;2.00;;
7334;SDS011;3708;42.632;23.378;2022-09-24T14:10:30;3.28;;;2.55;;
7334;SDS011;3708;42.632;23.378;2022-09-24T14:13:08;3.35;;;2.08;;
7334;SDS011;3708;42.632;23.378;2022-09-24T14:15:49;2.22;;;1.90;;
7334;SDS011;3708;42.632;23.378;2022-09-24T14:18:20;4.95;;;2.38;;
7334;SDS011;3708;42.632;23.378;2022-09-24T14:20:51;2.05;;;1.85;;
7334;SDS011;3708;42.632;23.378;2022-09-24T14:23:22;4.30;;;2.20;;
7334;SDS011;3708;42.632;23.378;2022-09-24T14:25:54;3.67;;;2.47;;
7334;SDS011;3708;42.632;23.378;2022-09-24T14:28:23;7.45;;;2.97;;
7334;SDS011;3708;42.632;23.378;2022-09-24T14:30:53;2.97;;;2.40;;
7334;SDS011;3708;42.632;23.378;2022-09-24T14:33:22;5.03;;;2.97;;
7334;SDS011;3708;42.632;23.378;2022-09-24T14:35:53;5.75;;;2.60;;
7334;SDS011;3708;42.632;23.378;2022-09-24T14:38:22;2.28;;;1.92;;
7334;SDS011;3708;42.632;23.378;2022-09-24T14:40:54;6.60;;;3.30;;
7334;SDS011;3708;42.632;23.378;2022-09-24T14:43:25;7.13;;;3.15;;
7334;SDS011;3708;42.632;23.378;2022-09-24T14:46:00;3.03;;;2.20;;
7334;SDS011;3708;42.632;23.378;2022-09-24T14:48:30;3.05;;;2.38;;
7334;SDS011;3708;42.632;23.378;2022-09-24T14:50:59;6.15;;;2.30;;
7334;SDS011;3708;42.632;23.378;2022-09-24T14:53:28;3.08;;;2.63;;
7334;SDS011;3708;42.632;23.378;2022-09-24T14:55:57;3.30;;;2.90;;
7334;SDS011;3708;42.632;23.378;2022-09-24T14:58:25;13.02;;;6.05;;
7334;SDS011;3708;42.632;23.378;2022-09-24T15:00:59;4.95;;;2.65;;
7334;SDS011;3708;42.632;23.378;2022-09-24T15:03:29;6.40;;;2.88;;
7334;SDS011;3708;42.632;23.378;2022-09-24T15:06:04;8.00;;;6.88;;
7334;SDS011;3708;42.632;23.378;2022-09-24T15:08:38;8.02;;;4.75;;
7334;SDS011;3708;42.632;23.378;2022-09-24T15:11:13;5.72;;;3.10;;
7334;SDS011;3708;42.632;23.378;2022-09-24T15:13:42;5.13;;;3.78;;
7334;SDS011;3708;42.632;23.378;2022-09-24T15:16:16;10.00;;;2.97;;
7334;SDS011;3708;42.632;23.378;2022-09-24T15:18:47;3.25;;;2.83;;
7334;SDS011;3708;42.632;23.378;2022-09-24T15:21:22;2.80;;;2.20;;
7334;SDS011;3708;42.632;23.378;2022-09-24T15:23:49;4.63;;;2.55;;
7334;SDS011;3708;42.632;23.378;2022-09-24T15:26:16;4.18;;;2.67;;
7334;SDS011;3708;42.632;23.378;2022-09-24T15:28:44;6.85;;;2.60;;
7334;SDS011;3708;42.632;23.378;2022-09-24T15:31:12;4.63;;;2.47;;
7334;SDS011;3708;42.632;23.378;2022-09-24T15:33:38;3.42;;;2.03;;
7334;SDS011;3708;42.632;23.378;2022-09-24T15:36:07;21.55;;;2.95;;